Rodovre, Denmark
Current Conditions -  °F | °C
As of 12:20 AM on Wednesday 26 Nov 2014 (Local Time) from EKCH Reporting Station
Broken Clouds Broken Clouds  
Wind Chill: 43°   Ceiling: 2000
Heat Index: 43°   Visibility: 6mi
Dew Point: 41°   Wind: 1mph
Humidity: 93%   Direction: NA
Pressure: 30.3"   Gusts: NA
Location:  55.68°N, 12.45°E
Report Text: EKCH 252320Z VRB01KT 9999 BKN020 06/05 Q1026 NOSIG
Loading
Personal Weather Stations






























Interactive Weather Map New forecast layout! Learn more

10-Day Weather Forecast

Advertisements
Track Severe Weather on mobile